Belleville, MI

7:42 AM EDT on October 01, 2016 (GMT -0400)
HAGGERTY RD. 1.5 MILES SOUTH OF I-94 | | Change Station

Elev 640 ft 42.19 °N, 83.44 °W | Updated 13 seconds ago

Light Rain
Light Rain Mist
61.2 °F
Feels Like 61.2 °F
N
0.0
Wind Variable Wind from North
Gusts 0.0 mph

Today
High -- | Low -- °F
--% Chance of Precip.
Yesterday
High -- | Low -- °F
Precip. -- in
Pressure 30.06 in
Visibility 4.0 miles
Clouds Mostly Cloudy 700 ft
Overcast 1200 ft
Dew Point 61 °F
Humidity 98%
Rainfall 0.39 in
Snow Depth Not available.
7:31 AM 7:14 PM
New Moon, 0% visible
METAR KDTW 011053Z 09006KT 4SM -RA BR BKN007 OVC012 16/16 A3006 RMK AO2 SLP178 P0001 T01560156 $
Pressure 30.06 in
Visibility 4.0 miles
Clouds Mostly Cloudy 700 ft
Overcast 1200 ft
Dew Point 61 °F
Humidity 98%
Rainfall 0.39 in
Snow Depth Not available.
7:31 AM 7:14 PM
New Moon, 0% visible
METAR KDTW 011053Z 09006KT 4SM -RA BR BKN007 OVC012 16/16 A3006 RMK AO2 SLP178 P0001 T01560156 $

10-Day Weather Forecast

Almanac

Astronomy

Oct. 01, 2016 Rise Set
Actual Time
Civil Twilight
Nautical Twilight
Astronomical Twilight
Moon
Length of Visible Light
Length of Day
Tomorrow will be .
, % of the Moon is Illuminated

Today's Extremes

State Highs State Lows

Community

WunderPhotos

Upload Photos

1,942,905 photos uploaded!

WunderBlog® & News

Nearby

Air Quality

  Air Quality AQ Index Pollutant
Not available.

Snow Depth

Station Depth Elevation

Earthquake Activity

City Distance Mag. Time & Date
Minimum magnitude displayed is 2.5.

Coastal Water Temperatures

Place Temperature

Stations

Nearby Weather Stations

Station Location Temp. Windchill Dew Point Humidity Wind Precip. Elev Updated Type
                   

Watches & Warnings

There are currently no watches in effect.